Time;durP1;ratioP1;P1;durP2;ratioP2;P2;SDS_P1;SDS_P2;PMS_P1;PMS_P2;Temp;Humidity;BMP_temperature;BMP_pressure;BME280_temperature;BME280_humidity;BME280_pressure;Samples;Min_cycle;Max_cycle;Signal;HPM_P1;HPM_P2
2023/07/07 00:01:45;;;;;;;;;;;;;;;16.36;93.60;101892.97;5069298;28;20671;-37
2023/07/07 00:04:10;;;;;;;5.23;3.73;;;;;;;16.19;95.67;101896.44;5068410;28;19920;-37
2023/07/07 00:06:35;;;;;;;;;;;;;;;16.34;93.63;101898.66;5069439;28;20251;-38
2023/07/07 00:09:02;;;;;;;6.78;4.07;;;;;;;16.09;96.02;101890.78;5069083;28;20233;-38
2023/07/07 00:11:28;;;;;;;6.07;4.28;;;;;;;16.10;95.73;101891.63;5057761;28;20029;-38
2023/07/07 00:13:54;;;;;;;;;;;;;;;16.27;94.03;101897.97;5055767;28;20048;-38
2023/07/07 00:16:22;;;;;;;7.35;4.40;;;;;;;15.91;95.43;101880.91;5055852;28;19932;-38
2023/07/07 00:18:48;;;;;;;6.32;4.32;;;;;;;15.96;95.16;101894.66;5054861;28;20029;-38
2023/07/07 00:21:13;;;;;;;;;;;;;;;16.17;93.50;101895.06;5055948;28;20033;-38
2023/07/07 00:23:38;;;;;;;6.40;4.33;;;;;;;15.91;97.10;101893.72;5055591;28;19908;-38
2023/07/07 00:26:05;;;;;;;;;;;;;;;16.14;94.42;101899.09;5056104;28;20258;-38
2023/07/07 00:28:31;;;;;;;5.68;4.40;;;;;;;15.84;98.25;101895.72;5054895;28;19943;-38
2023/07/07 00:30:57;;;;;;;6.22;4.80;;;;;;;15.88;99.73;101897.75;5055653;28;20029;-37
2023/07/07 00:33:23;;;;;;;;;;;;;;;16.05;95.71;101889.63;5055877;28;20389;-37
2023/07/07 00:35:49;;;;;;;5.40;4.03;;;;;;;15.87;97.93;101898.81;5055254;28;19912;-37
2023/07/07 00:38:14;;;;;;;;;;;;;;;16.03;95.09;101891.78;5055346;28;20128;-37
2023/07/07 00:40:40;;;;;;;7.35;3.90;;;;;;;15.83;97.98;101899.53;5055491;28;19986;-37
2023/07/07 00:43:17;;;;;;;;;;;;;;;15.99;95.08;101903.41;5055589;28;20457;-37
2023/07/07 00:45:44;;;;;;;5.53;4.00;;;;;;;15.73;97.24;101896.59;5055658;28;19938;-38
2023/07/07 00:48:14;;;;;;;7.93;4.43;;;;;;;15.75;97.03;101913.53;5055317;28;20264;-37
2023/07/07 00:51:05;;;;;;;4.82;4.15;;;;;;;15.73;97.23;101911.06;5055014;28;20107;-37
2023/07/07 00:53:31;;;;;;;6.32;4.28;;;;;;;15.64;98.56;101899.69;5055379;28;20060;-37
2023/07/07 00:56:05;;;;;;;4.82;4.00;;;;;;;15.60;99.64;101897.63;5054838;28;20029;-37
2023/07/07 00:58:35;;;;;;;7.18;4.35;;;;;;;15.60;98.88;101897.63;5054536;28;20055;-35
2023/07/07 01:01:05;;;;;;;4.85;4.13;;;;;;;15.59;99.46;101905.00;5054639;28;20036;-35
2023/07/07 01:03:38;;;;;;;6.07;4.10;;;;;;;15.63;98.25;101903.47;5054351;28;20465;-35
2023/07/07 01:06:07;;;;;;;7.40;4.47;;;;;;;15.56;99.42;101912.81;5054775;28;20047;-37
2023/07/07 01:08:35;;;;;;;7.30;4.63;;;;;;;15.50;100.00;101911.88;5054681;28;20504;-36
2023/07/07 01:11:01;;;;;;;8.38;4.00;;;;;;;15.54;99.26;101915.78;5054177;28;20035;-36
2023/07/07 01:13:26;;;;;;;;;;;;;;;15.68;96.66;101916.41;5055172;28;20021;-36
2023/07/07 01:16:33;;;;;;;7.88;4.15;;;;;;;15.51;98.70;101916.25;5054711;28;20066;-36
2023/07/07 01:19:32;;;;;;;7.57;4.28;;;;;;;15.40;99.75;101906.19;5044188;28;20477;-36
2023/07/07 01:22:12;;;;;;;6.75;4.55;;;;;;;15.42;99.90;101913.06;5053368;28;20100;-36
2023/07/07 01:25:05;;;;;;;6.00;4.10;;;;;;;15.35;99.63;101911.53;5054010;28;20056;-36
2023/07/07 01:27:55;;;;;;;6.72;4.10;;;;;;;15.34;100.00;101915.31;5053948;28;20487;-36
2023/07/07 01:30:34;;;;;;;6.75;4.38;;;;;;;15.29;100.00;101915.19;5053941;28;20025;-36
2023/07/07 01:33:05;;;;;;;6.55;4.45;;;;;;;15.20;100.00;101915.53;5053591;28;20031;-36
2023/07/07 01:35:31;;;;;;;5.90;4.10;;;;;;;15.25;100.00;101914.00;5054189;28;20064;-36
2023/07/07 01:37:57;;;;;;;;;;;;;;;15.39;98.55;101916.25;5054728;28;20060;-36
2023/07/07 01:41:04;;;;;;;4.28;3.80;;;;;;;15.22;100.00;101917.19;5053900;28;19912;-36
2023/07/07 01:43:43;;;;;;;5.90;4.05;;;;;;;15.12;100.00;101910.44;5050417;28;20143;-36
2023/07/07 01:46:22;;;;;;;4.80;4.30;;;;;;;15.05;100.00;101917.06;5053810;28;20033;-36
2023/07/07 01:48:52;;;;;;;6.07;4.22;;;;;;;15.02;100.00;101909.34;5053876;28;20075;-36
2023/07/07 01:51:20;;;;;;;5.22;4.10;;;;;;;14.98;100.00;101911.69;5053477;28;20475;-36
2023/07/07 01:53:50;;;;;;;6.57;4.50;;;;;;;14.94;100.00;101910.53;5052200;28;20021;-36
2023/07/07 01:56:22;;;;;;;5.00;4.45;;;;;;;14.91;100.00;101917.28;5053692;28;20044;-36
2023/07/07 01:58:48;;;;;;;5.03;4.15;;;;;;;14.88;99.30;101911.44;5052376;28;20045;-36
2023/07/07 02:01:14;;;;;;;5.65;4.35;;;;;;;14.85;100.00;101909.22;5053381;28;20025;-36
2023/07/07 02:03:39;;;;;;;;;;;;;;;15.06;99.05;101911.38;5053463;28;20021;-36
2023/07/07 02:06:04;;;;;;;8.33;4.17;;;;;;;14.79;100.00;101912.88;5053229;28;19919;-36
2023/07/07 02:08:31;;;;;;;;;;;;;;;15.01;98.59;101910.41;5053623;28;20028;-36
2023/07/07 02:10:56;;;;;;;6.07;4.40;;;;;;;14.76;100.00;101897.00;5053086;28;20288;-36
2023/07/07 02:13:22;;;;;;;;;;;;;;;14.95;98.97;101909.47;5053556;28;20108;-36
2023/07/07 02:15:47;;;;;;;7.90;5.10;;;;;;;14.73;100.00;101911.88;5052878;28;20426;-36
2023/07/07 02:18:12;;;;;;;5.90;5.13;;;;;;;14.58;100.00;101890.53;5053216;28;20716;-36
2023/07/07 02:20:38;;;;;;;8.25;5.32;;;;;;;14.65;100.00;101899.47;5053020;28;20751;-36
2023/07/07 02:23:03;;;;;;;;;;;;;;;14.77;99.76;101894.03;5053354;28;20362;-36
2023/07/07 02:25:28;;;;;;;5.73;4.70;;;;;;;14.63;100.00;101901.56;5052938;28;19920;-36
2023/07/07 02:27:54;;;;;;;6.35;4.80;;;;;;;14.60;100.00;101910.22;5053194;28;20266;-36
2023/07/07 02:30:19;;;;;;;6.38;5.50;;;;;;;14.61;100.00;101909.16;5052905;28;20107;-36
2023/07/07 02:32:44;;;;;;;;;;;;;;;14.76;100.00;101902.44;5053377;28;20021;-36
2023/07/07 02:35:10;;;;;;;5.57;5.00;;;;;;;14.55;100.00;101907.34;5052632;28;20319;-36
2023/07/07 02:37:35;;;;;;;6.72;5.57;;;;;;;14.50;100.00;101901.78;5052738;28;20272;-36
2023/07/07 02:40:01;;;;;;;6.68;5.78;;;;;;;14.59;100.00;101910.44;5067791;28;20040;-36
2023/07/07 02:42:26;;;;;;;;;;;;;;;14.68;100.00;101903.59;5053667;28;20036;-36
2023/07/07 02:44:51;;;;;;;11.50;5.73;;;;;;;14.50;100.00;101907.22;5053048;28;20372;-36
2023/07/07 02:47:17;;;;;;;;;;;;;;;14.65;100.00;101907.63;5053796;28;20383;-36
2023/07/07 02:49:43;;;;;;;6.68;5.50;;;;;;;14.33;100.00;101903.44;5053085;28;20005;-36
2023/07/07 02:52:09;;;;;;;6.43;5.80;;;;;;;14.39;100.00;101910.69;5052868;28;20040;-36
2023/07/07 02:54:34;;;;;;;8.40;6.05;;;;;;;14.28;100.00;101908.75;5052581;28;20040;-36
2023/07/07 02:57:02;;;;;;;6.38;5.78;;;;;;;14.28;100.00;101919.63;5052743;28;20055;-35
2023/07/07 02:59:27;;;;;;;6.90;5.72;;;;;;;14.36;100.00;101913.88;5052008;28;20550;-35
2023/07/07 03:01:52;;;;;;;;;;;;;;;14.49;100.00;101923.75;5053379;28;20211;-35
2023/07/07 03:04:18;;;;;;;6.30;5.70;;;;;;;14.28;100.00;101917.72;5052336;28;19917;-36
2023/07/07 03:06:43;;;;;;;;;;;;;;;14.42;100.00;101924.66;5053401;28;20349;-36
2023/07/07 03:09:09;;;;;;;7.37;6.30;;;;;;;14.26;100.00;101921.75;5051984;28;20007;-36
2023/07/07 03:11:34;;;;;;;6.88;6.18;;;;;;;14.17;100.00;101924.78;5052062;28;20268;-36
2023/07/07 03:13:59;;;;;;;;;;;;;;;14.36;100.00;101930.19;5052799;28;20037;-36
2023/07/07 03:16:30;;;;;;;6.83;6.13;;;;;;;14.11;100.00;101928.44;5052866;28;20257;-36
2023/07/07 03:19:02;;;;;;;7.05;6.35;;;;;;;14.06;100.00;101928.28;5053007;28;20374;-36
2023/07/07 03:21:28;;;;;;;6.85;6.18;;;;;;;14.08;100.00;101928.88;5052147;28;20054;-36
2023/07/07 03:23:53;;;;;;;;;;;;;;;14.25;100.00;101934.53;5053396;28;20029;-36
2023/07/07 03:26:20;;;;;;;6.35;5.75;;;;;;;14.05;100.00;101933.94;5052759;28;19919;-36
2023/07/07 03:28:46;;;;;;;6.18;5.57;;;;;;;14.08;100.00;101926.16;5052607;28;20060;-36
2023/07/07 03:31:13;;;;;;;;;;;;;;;14.25;100.00;101922.78;5053318;28;20056;-36
2023/07/07 03:33:40;;;;;;;7.28;5.65;;;;;;;14.04;100.00;101915.94;5052017;28;20387;-36
2023/07/07 03:36:08;;;;;;;6.47;4.97;;;;;;;14.05;100.00;101920.31;5052161;28;20040;-36
2023/07/07 03:38:33;;;;;;;9.18;5.88;;;;;;;14.08;100.00;101930.75;5051722;28;20064;-36
2023/07/07 03:40:58;;;;;;;;;;;;;;;14.23;100.00;101931.19;5052335;28;20071;-36
2023/07/07 03:43:23;;;;;;;8.33;5.77;;;;;;;14.06;100.00;101930.19;5051837;28;19915;-36
2023/07/07 03:45:49;;;;;;;;;;;;;;;14.23;100.00;101924.94;5053670;28;20025;-36
2023/07/07 03:48:14;;;;;;;6.80;5.90;;;;;;;14.12;100.00;101929.25;5055237;28;19913;-36
2023/07/07 03:50:40;;;;;;;6.32;5.72;;;;;;;14.05;100.00;101929.31;5055565;28;20401;-37
2023/07/07 03:53:05;;;;;;;7.22;6.28;;;;;;;14.05;100.00;101933.94;5055698;28;20093;-36
2023/07/07 03:55:30;;;;;;;8.65;6.70;;;;;;;14.11;100.00;101936.59;5055761;28;20028;-36
2023/07/07 03:57:56;;;;;;;;;;;;;;;14.22;100.00;101931.44;5056052;28;20055;-36
2023/07/07 04:00:21;;;;;;;9.50;5.43;;;;;;;14.14;100.00;101938.00;5056251;28;19935;-37
2023/07/07 04:02:46;;;;;;;6.85;6.00;;;;;;;14.09;100.00;101933.25;5055031;28;20274;-37
2023/07/07 04:05:12;;;;;;;6.90;5.90;;;;;;;14.06;100.00;101931.00;5055968;28;20183;-37
2023/07/07 04:07:37;;;;;;;8.60;5.70;;;;;;;14.06;100.00;101914.69;5055540;28;20036;-37
2023/07/07 04:10:03;;;;;;;9.25;6.00;;;;;;;14.05;100.00;101926.59;5055855;28;20103;-37
2023/07/07 04:12:31;;;;;;;7.60;6.40;;;;;;;14.06;100.00;101925.56;5055702;28;20112;-37
2023/07/07 04:14:58;;;;;;;8.77;6.63;;;;;;;13.97;100.00;101942.41;5055400;28;20033;-37
2023/07/07 04:17:24;;;;;;;7.65;6.63;;;;;;;13.95;100.00;101931.75;5056119;28;20489;-37
2023/07/07 04:19:49;;;;;;;;;;;;;;;14.13;100.00;101931.72;5056088;28;20064;-37
2023/07/07 04:22:14;;;;;;;7.13;6.40;;;;;;;14.07;100.00;101932.66;5054997;28;19916;-37
2023/07/07 04:24:40;;;;;;;7.93;6.75;;;;;;;14.03;100.00;101941.50;5055113;28;20279;-37
2023/07/07 04:27:06;;;;;;;7.57;6.10;;;;;;;14.07;100.00;101953.59;5055666;28;20032;-37
2023/07/07 04:29:31;;;;;;;7.85;6.55;;;;;;;13.97;100.00;101936.97;5055108;28;20056;-36
2023/07/07 04:31:56;;;;;;;;;;;;;;;14.21;100.00;101955.09;5055202;28;20111;-36
2023/07/07 04:34:22;;;;;;;6.63;5.93;;;;;;;14.10;100.00;101959.41;5054490;28;19938;-36
2023/07/07 04:36:48;;;;;;;7.47;5.55;;;;;;;14.23;100.00;101952.97;5055368;28;20028;-36
2023/07/07 04:39:13;;;;;;;;;;;;;;;14.37;100.00;101951.72;5055402;28;20021;-36
2023/07/07 04:41:38;;;;;;;6.75;5.65;;;;;;;14.43;100.00;101939.09;5055055;28;19917;-36
2023/07/07 04:44:04;;;;;;;;;;;;;;;14.60;100.00;101940.16;5055305;28;20025;-36
2023/07/07 04:46:32;;;;;;;8.40;5.85;;;;;;;14.57;100.00;101939.78;5055331;28;20385;-37
2023/07/07 04:48:58;;;;;;;7.78;5.63;;;;;;;14.56;100.00;101929.97;5054847;28;20029;-37
2023/07/07 04:51:24;;;;;;;6.65;5.18;;;;;;;14.68;100.00;101934.38;5054770;28;20124;-37
2023/07/07 04:53:49;;;;;;;;;;;;;;;14.91;100.00;101941.78;5055099;28;20063;-37
2023/07/07 04:56:20;;;;;;;5.70;4.83;;;;;;;14.87;100.00;101928.84;5054556;28;20277;-37
2023/07/07 04:58:50;;;;;;;7.60;5.60;;;;;;;14.95;100.00;101928.53;5054355;28;20370;-37
2023/07/07 05:01:27;;;;;;;8.32;5.55;;;;;;;15.05;99.47;101934.22;5055359;28;20406;-37
2023/07/07 05:03:56;;;;;;;7.57;5.25;;;;;;;15.19;98.64;101943.84;5054621;28;20079;-37
2023/07/07 05:06:23;;;;;;;8.95;5.50;;;;;;;15.40;98.13;101937.00;5054770;28;20060;-37
2023/07/07 05:08:49;;;;;;;7.25;5.25;;;;;;;15.46;97.16;101937.94;5054384;28;20029;-37
2023/07/07 05:11:21;;;;;;;9.85;5.65;;;;;;;15.54;97.51;101940.31;5054697;28;20461;-37
2023/07/07 05:13:48;;;;;;;10.43;5.57;;;;;;;15.69;96.49;101940.69;5054595;28;20029;-37
2023/07/07 05:16:15;;;;;;;7.82;5.22;;;;;;;15.82;95.01;101933.34;5054798;28;20032;-37
2023/07/07 05:18:41;;;;;;;6.72;5.05;;;;;;;15.83;95.31;101930.38;5054266;28;20025;-37
2023/07/07 05:21:09;;;;;;;7.65;4.65;;;;;;;15.99;93.78;101936.97;5054953;28;20052;-37
2023/07/07 05:23:35;;;;;;;8.15;4.65;;;;;;;16.03;91.34;101940.88;5054109;28;20032;-37
2023/07/07 05:26:01;;;;;;;8.95;4.60;;;;;;;16.16;92.60;101947.97;5054359;28;20124;-37
2023/07/07 05:28:26;;;;;;;;;;;;;;;16.34;93.83;101938.75;5054248;28;20063;-37
2023/07/07 05:30:52;;;;;;;9.75;4.93;;;;;;;16.35;92.43;101933.09;5054553;28;19954;-37
2023/07/07 05:33:17;;;;;;;;;;;;;;;16.50;92.57;101938.00;5055110;28;20025;-37
2023/07/07 05:35:51;;;;;;;5.73;4.30;;;;;;;16.56;91.54;101938.94;5054072;28;19908;-37
2023/07/07 05:38:17;;;;;;;5.13;4.13;;;;;;;16.63;90.90;101942.31;5054782;28;20268;-37
2023/07/07 05:40:45;;;;;;;5.65;4.57;;;;;;;16.74;89.10;101946.94;5054584;28;20028;-37
2023/07/07 05:43:11;;;;;;;6.65;4.15;;;;;;;16.82;89.09;101949.25;5053964;28;20029;-37
2023/07/07 05:45:37;;;;;;;13.70;5.95;;;;;;;16.92;87.47;101943.97;5053799;28;20025;-37
2023/07/07 05:48:02;;;;;;;;;;;;;;;17.07;90.03;101940.69;5053857;28;20036;-37
2023/07/07 05:50:27;;;;;;;7.22;4.43;;;;;;;17.07;86.63;101946.16;5054449;28;19991;-37
2023/07/07 05:52:53;;;;;;;;;;;;;;;17.23;89.17;101949.97;5053981;28;20059;-37
2023/07/07 05:55:25;;;;;;;6.47;4.10;;;;;;;17.25;88.07;101942.34;5053841;28;19974;-37
2023/07/07 05:57:51;;;;;;;10.88;4.75;;;;;;;17.38;85.81;101952.13;5053242;28;20264;-37
2023/07/07 06:00:17;;;;;;;6.80;5.00;;;;;;;17.51;84.51;101957.22;5053565;28;20056;-37
2023/07/07 06:02:42;;;;;;;;;;;;;;;17.65;86.86;101965.91;5053868;28;20124;-37
2023/07/07 06:05:07;;;;;;;11.57;4.60;;;;;;;17.69;84.26;101950.66;5053484;28;20134;-37
2023/07/07 06:07:33;;;;;;;;;;;;;;;17.84;85.65;101944.63;5054276;28;20025;-37
2023/07/07 06:09:58;;;;;;;5.80;4.43;;;;;;;17.78;83.32;101940.97;5052644;28;20015;-37
2023/07/07 06:12:24;;;;;;;;;;;;;;;17.97;85.29;101938.78;5054259;28;20033;-37
2023/07/07 06:14:49;;;;;;;8.32;4.30;;;;;;;18.00;83.36;101943.72;5053256;28;19912;-37
2023/07/07 06:17:14;;;;;;;;;;;;;;;18.13;83.52;101948.00;5053852;28;20183;-37
2023/07/07 06:19:40;;;;;;;6.07;4.40;;;;;;;18.15;79.61;101951.31;5053038;28;20038;-37
2023/07/07 06:22:05;;;;;;;;;;;;;;;18.25;79.99;101949.53;5053446;28;20391;-37
2023/07/07 06:24:30;;;;;;;7.50;3.83;;;;;;;18.29;78.31;101941.63;5052670;28;19908;-37
2023/07/07 06:26:56;;;;;;;5.85;4.28;;;;;;;18.39;78.27;101949.94;5052970;28;20116;-37
2023/07/07 06:29:21;;;;;;;;;;;;;;;18.52;80.33;101948.72;5053107;28;20036;-37
2023/07/07 06:31:46;;;;;;;5.37;4.67;;;;;;;18.57;77.37;101947.97;5052880;28;19909;-37
2023/07/07 06:34:11;;;;;;;;;;;;;;;18.68;80.68;101950.56;5053277;28;20267;-38
2023/07/07 06:36:37;;;;;;;6.90;4.27;;;;;;;18.72;79.61;101950.88;5053110;28;20007;-37
2023/07/07 06:39:02;;;;;;;;;;;;;;;18.86;80.62;101952.13;5052798;28;20353;-37
2023/07/07 06:41:28;;;;;;;6.40;4.10;;;;;;;18.86;79.76;101943.09;5053011;28;19918;-37
2023/07/07 06:43:53;;;;;;;;;;;;;;;19.03;81.55;101954.72;5053907;28;20294;-37
2023/07/07 06:46:22;;;;;;;7.57;3.70;;;;;;;19.07;78.65;101953.13;5052717;28;19921;-37
2023/07/07 06:48:48;;;;;;;7.97;4.38;;;;;;;19.10;76.59;101951.78;5052650;28;20271;-37
2023/07/07 06:51:13;;;;;;;6.78;4.40;;;;;;;19.20;76.97;101958.19;5052851;28;20461;-37
2023/07/07 06:53:38;;;;;;;7.13;3.92;;;;;;;19.28;77.03;101952.22;5052308;28;20027;-37
2023/07/07 06:56:04;;;;;;;6.45;4.22;;;;;;;19.38;77.32;101953.41;5052658;28;20428;-37
2023/07/07 06:58:30;;;;;;;;;;;;;;;19.48;78.77;101959.78;5052936;28;20484;-37
2023/07/07 07:00:55;;;;;;;6.65;3.85;;;;;;;19.52;77.93;101954.56;5053198;28;20000;-37
2023/07/07 07:03:21;;;;;;;5.43;3.85;;;;;;;19.62;75.95;101960.19;5052638;28;20029;-37
2023/07/07 07:05:46;;;;;;;9.55;3.85;;;;;;;19.65;76.54;101961.56;5052886;28;20099;-37
2023/07/07 07:08:12;;;;;;;5.40;3.75;;;;;;;19.77;75.60;101960.28;5052559;28;20051;-37
2023/07/07 07:10:37;;;;;;;7.10;3.33;;;;;;;19.85;73.24;101964.41;5052560;28;20380;-37
2023/07/07 07:13:03;;;;;;;6.63;2.95;;;;;;;19.86;69.47;101948.75;5052229;28;20109;-37
2023/07/07 07:15:28;;;;;;;4.70;3.05;;;;;;;20.02;70.54;101958.75;5053326;28;20063;-37
2023/07/07 07:17:53;;;;;;;6.43;3.72;;;;;;;20.09;71.40;101969.47;5052758;28;20041;-37
2023/07/07 07:20:19;;;;;;;4.47;2.92;;;;;;;20.12;68.82;101958.78;5053052;28;20434;-37
2023/07/07 07:22:44;;;;;;;6.95;3.78;;;;;;;20.23;71.32;101965.97;5056571;28;20028;-37
2023/07/07 07:25:10;;;;;;;4.75;3.50;;;;;;;20.31;73.79;101965.47;5057041;28;20074;-37
2023/07/07 07:27:37;;;;;;;5.85;3.40;;;;;;;20.35;67.43;101967.66;5056367;28;20370;-37
2023/07/07 07:30:04;;;;;;;5.55;3.40;;;;;;;20.39;71.39;101968.78;5056197;28;20025;-37
2023/07/07 07:32:29;;;;;;;4.22;3.70;;;;;;;20.46;69.26;101972.09;5056510;28;20377;-37
2023/07/07 07:34:55;;;;;;;6.97;3.50;;;;;;;20.49;70.22;101977.06;5055823;28;20024;-37
2023/07/07 07:37:20;;;;;;;5.55;3.33;;;;;;;20.50;68.85;101959.50;5056554;28;20032;-37
2023/07/07 07:39:45;;;;;;;6.60;3.70;;;;;;;20.58;67.87;101975.44;5056212;28;20025;-37
2023/07/07 07:42:11;;;;;;;6.88;2.92;;;;;;;20.52;68.32;101960.06;5056618;28;20139;-37
2023/07/07 07:44:36;;;;;;;4.35;2.50;;;;;;;20.68;69.28;101974.66;5056322;28;20036;-37
2023/07/07 07:47:01;;;;;;;6.82;3.30;;;;;;;20.70;67.94;101973.31;5056051;28;20107;-37
2023/07/07 07:49:27;;;;;;;5.47;3.28;;;;;;;20.81;70.96;101972.22;5056102;28;20444;-37
2023/07/07 07:51:54;;;;;;;5.10;2.97;;;;;;;20.83;69.22;101975.50;5056492;28;20032;-37
2023/07/07 07:54:20;;;;;;;7.15;3.13;;;;;;;20.95;68.01;101980.75;5056035;28;20036;-37
2023/07/07 07:56:46;;;;;;;4.93;2.95;;;;;;;21.01;68.86;101970.59;5056075;28;20025;-37
2023/07/07 07:59:12;;;;;;;7.65;2.88;;;;;;;20.97;67.04;101952.97;5056074;28;20049;-37
2023/07/07 08:01:37;;;;;;;4.28;2.65;;;;;;;21.20;68.57;101971.69;5055644;28;20497;-37
2023/07/07 08:04:04;;;;;;;3.72;2.88;;;;;;;21.30;67.66;101979.13;5056061;28;20124;-37
2023/07/07 08:06:30;;;;;;;5.57;2.30;;;;;;;21.30;67.08;101963.47;5056059;28;20057;-37
2023/07/07 08:08:55;;;;;;;4.88;2.80;;;;;;;21.50;64.77;101975.56;5055749;28;20063;-37
2023/07/07 08:11:46;;;;;;;4.18;2.63;;;;;;;21.59;67.68;101976.66;5056016;28;20032;-38
2023/07/07 08:14:18;;;;;;;5.05;2.50;;;;;;;21.73;66.11;101980.47;5047908;28;20044;-38
2023/07/07 08:16:44;;;;;;;2.95;1.70;;;;;;;21.89;61.64;101988.69;5055854;28;20052;-37
2023/07/07 08:19:10;;;;;;;3.92;2.17;;;;;;;21.84;64.01;101970.25;5055049;28;20461;-44
2023/07/07 08:21:36;;;;;;;4.43;1.95;;;;;;;21.99;63.17;101988.66;5055061;28;20025;-38
2023/07/07 08:24:02;;;;;;;3.30;2.00;;;;;;;22.15;61.91;101973.75;5055390;28;20480;-37
2023/07/07 08:26:27;;;;;;;4.47;2.15;;;;;;;22.22;61.85;101971.53;5055965;28;20021;-37
2023/07/07 08:28:53;;;;;;;3.90;1.80;;;;;;;22.33;61.66;101975.88;5055123;28;20487;-37
2023/07/07 08:31:18;;;;;;;3.97;2.33;;;;;;;22.39;62.15;101979.44;5054675;28;20029;-37
2023/07/07 08:33:46;;;;;;;3.38;1.67;;;;;;;22.41;63.00;101971.72;5055768;28;20384;-37
2023/07/07 08:36:11;;;;;;;8.35;1.90;;;;;;;22.49;60.98;101973.06;5054810;28;20060;-37
2023/07/07 08:38:37;;;;;;;4.72;1.55;;;;;;;22.60;60.46;101974.66;5054804;28;20063;-37
2023/07/07 08:41:02;;;;;;;5.47;2.00;;;;;;;22.68;62.45;101979.56;5055170;28;20025;-37
2023/07/07 08:43:30;;;;;;;3.05;1.90;;;;;;;22.79;58.78;101972.88;5055379;28;20469;-37
2023/07/07 08:46:07;;;;;;;3.90;2.00;;;;;;;22.90;58.80;101968.16;5055422;28;20112;-37
2023/07/07 08:49:01;;;;;;;2.85;1.60;;;;;;;23.12;58.70;101974.03;5055338;28;20033;-37
2023/07/07 08:51:39;;;;;;;4.55;1.75;;;;;;;23.19;56.10;101976.47;5055503;28;20099;-37
2023/07/07 08:54:34;;;;;;;2.67;1.75;;;;;;;23.26;58.29;101979.72;5055543;28;20492;-37
2023/07/07 08:57:10;;;;;;;4.10;1.55;;;;;;;23.27;56.11;101964.81;5055296;28;20036;-37
2023/07/07 08:59:54;;;;;;;2.58;1.35;;;;;;;23.52;55.75;101966.53;5054596;28;20108;-37
2023/07/07 09:02:22;;;;;;;3.65;1.60;;;;;;;23.60;55.08;101973.34;5054622;28;20033;-37
2023/07/07 09:04:56;;;;;;;3.33;1.40;;;;;;;23.76;54.59;101962.97;5054903;28;20071;-37
2023/07/07 09:07:40;;;;;;;3.40;1.60;;;;;;;23.81;52.95;101972.03;5054855;28;20373;-37
2023/07/07 09:10:33;;;;;;;2.95;1.42;;;;;;;23.80;51.13;101958.50;5055206;28;20037;-37
2023/07/07 09:13:07;;;;;;;3.17;1.60;;;;;;;24.05;52.01;101965.69;5054514;28;20037;-37
2023/07/07 09:15:39;;;;;;;2.40;1.67;;;;;;;24.15;53.25;101966.38;5054646;28;20202;-37
2023/07/07 09:18:20;;;;;;;4.25;1.50;;;;;;;24.22;50.70;101968.78;5054353;28;20021;-37
2023/07/07 09:20:51;;;;;;;2.55;1.52;;;;;;;24.22;49.14;101959.69;5054283;28;20120;-37
2023/07/07 09:23:21;;;;;;;3.55;1.50;;;;;;;24.30;48.61;101967.28;5054262;28;20049;-37
2023/07/07 09:25:52;;;;;;;3.85;1.60;;;;;;;24.36;49.69;101961.47;5055493;28;20028;-37
2023/07/07 09:28:18;;;;;;;5.07;1.35;;;;;;;24.34;48.84;101949.81;5054726;28;20033;-37
2023/07/07 09:30:46;;;;;;;3.15;1.60;;;;;;;24.53;50.56;101960.13;5054468;28;20025;-37
2023/07/07 09:33:18;;;;;;;2.88;1.60;;;;;;;24.51;49.33;101949.34;5053837;28;20039;-37
2023/07/07 09:36:15;;;;;;;3.20;1.60;;;;;;;24.71;47.86;101953.78;5054138;28;20424;-37
2023/07/07 09:38:41;;;;;;;3.05;1.10;;;;;;;24.79;46.97;101960.53;5052404;28;20073;-37
2023/07/07 09:41:19;;;;;;;4.53;1.92;;;;;;;24.63;42.57;101959.97;5054313;28;20424;-37
2023/07/07 09:44:10;;;;;;;2.47;1.38;;;;;;;24.86;46.72;101958.25;5053563;28;20029;-38
2023/07/07 09:46:53;;;;;;;3.22;1.73;;;;;;;24.94;45.78;101960.34;5054320;28;20392;-38
2023/07/07 09:49:32;;;;;;;3.03;1.30;;;;;;;24.99;44.53;101960.25;5053950;28;20033;-37
2023/07/07 09:52:15;;;;;;;4.10;1.58;;;;;;;25.11;47.35;101955.09;5054230;28;20327;-37
2023/07/07 09:54:43;;;;;;;2.35;1.40;;;;;;;25.24;44.30;101950.72;5053306;28;20068;-37
2023/07/07 09:57:34;;;;;;;2.90;1.60;;;;;;;25.31;46.79;101948.38;5054137;28;20187;-37
2023/07/07 10:00:03;;;;;;;2.42;1.48;;;;;;;25.40;48.44;101945.72;5051438;28;20049;-37
2023/07/07 10:02:47;;;;;;;3.78;1.63;;;;;;;25.53;47.67;101946.91;5053528;28;20061;-37
2023/07/07 10:05:20;;;;;;;4.93;1.70;;;;;;;25.52;46.31;101951.59;5053438;28;20029;-37
2023/07/07 10:07:46;;;;;;;3.17;1.30;;;;;;;25.58;43.42;101947.63;5053670;28;20107;-38
2023/07/07 10:10:13;;;;;;;4.28;1.77;;;;;;;25.62;46.56;101953.34;5054183;28;20398;-38
2023/07/07 10:12:40;;;;;;;4.68;1.55;;;;;;;25.66;45.08;101948.84;5053376;28;20469;-37
2023/07/07 10:15:28;;;;;;;2.70;1.67;;;;;;;25.76;47.15;101948.66;5053248;28;20025;-37
2023/07/07 10:18:03;;;;;;;4.82;1.38;;;;;;;25.66;43.40;101932.22;5049791;28;20047;-37
2023/07/07 10:20:30;;;;;;;2.90;1.55;;;;;;;25.69;44.04;101917.75;5053154;28;20047;-38
2023/07/07 10:22:55;;;;;;;3.33;1.65;;;;;;;25.60;45.66;101909.34;5053454;28;20098;-37
2023/07/07 10:25:21;;;;;;;3.30;1.63;;;;;;;25.72;44.97;101936.56;5053603;28;20025;-37
2023/07/07 10:27:51;;;;;;;3.55;1.50;;;;;;;25.67;42.98;101931.13;5053416;28;20033;-37
2023/07/07 10:30:16;;;;;;;3.67;1.58;;;;;;;25.75;47.44;101919.34;5053178;28;20112;-37
2023/07/07 10:32:42;;;;;;;4.13;1.60;;;;;;;25.89;44.84;101933.19;5053121;28;20143;-37
2023/07/07 10:35:08;;;;;;;5.38;1.73;;;;;;;25.98;44.76;101930.53;5053333;28;20032;-37
2023/07/07 10:37:37;;;;;;;3.88;1.92;;;;;;;26.10;42.76;101928.03;5053357;28;20029;-37
2023/07/07 10:40:04;;;;;;;2.42;1.60;;;;;;;26.13;43.50;101924.66;5052793;28;20163;-37
2023/07/07 10:42:31;;;;;;;4.88;1.63;;;;;;;26.29;42.58;101934.25;5052906;28;20020;-37
2023/07/07 10:45:02;;;;;;;2.65;1.40;;;;;;;26.12;39.10;101911.94;5052893;28;20025;-37
2023/07/07 10:47:33;;;;;;;8.63;1.55;;;;;;;26.13;41.65;101921.88;5053442;28;20029;-37
2023/07/07 10:49:59;;;;;;;2.45;1.70;;;;;;;26.32;43.44;101927.28;5052871;28;20056;-37
2023/07/07 10:52:57;;;;;;;3.67;1.67;;;;;;;26.39;42.49;101920.16;5053019;28;20021;-37
2023/07/07 10:55:34;;;;;;;3.25;1.73;;;;;;;26.40;42.11;101912.66;5048422;28;20041;-37
2023/07/07 10:58:08;;;;;;;2.92;1.50;;;;;;;26.48;42.00;101903.66;5052653;28;20029;-37
2023/07/07 11:00:58;;;;;;;2.75;1.58;;;;;;;26.59;43.33;101904.22;5052743;28;20059;-37
2023/07/07 11:03:35;;;;;;;3.67;2.05;;;;;;;26.65;42.80;101911.31;5052307;28;20035;-37
2023/07/07 11:06:24;;;;;;;4.07;1.58;;;;;;;26.76;43.51;101909.91;5052902;28;20025;-37
2023/07/07 11:09:00;;;;;;;3.15;1.70;;;;;;;26.72;40.15;101913.63;5052522;28;20033;-37
2023/07/07 11:12:01;;;;;;;4.20;1.90;;;;;;;26.64;40.90;101904.91;5052610;28;20029;-37
2023/07/07 11:14:43;;;;;;;5.72;1.67;;;;;;;26.80;41.97;101910.94;5052555;28;20037;-38
2023/07/07 11:17:21;;;;;;;3.67;1.55;;;;;;;26.98;42.04;101911.03;5053371;28;20119;-38
2023/07/07 11:20:12;;;;;;;3.05;1.70;;;;;;;26.98;41.23;101909.06;5052624;28;20039;-38
2023/07/07 11:23:16;;;;;;;3.00;1.50;;;;;;;27.04;42.18;101893.13;5053257;28;20033;-38
2023/07/07 11:26:12;;;;;;;4.35;1.63;;;;;;;27.07;40.71;101914.69;5052433;28;20519;-38
2023/07/07 11:28:56;;;;;;;3.50;1.70;;;;;;;26.90;39.02;101907.06;5052940;28;20074;-38
2023/07/07 11:32:07;;;;;;;3.00;1.40;;;;;;;27.17;40.02;101895.84;5052775;28;20037;-37
2023/07/07 11:35:02;;;;;;;2.25;1.60;;;;;;;27.21;38.21;101896.84;5043984;28;20119;-37
2023/07/07 11:37:33;;;;;;;4.53;1.88;;;;;;;27.19;38.03;101895.53;5052936;28;20037;-37
2023/07/07 11:40:11;;;;;;;3.45;1.70;;;;;;;27.01;38.29;101890.97;5052324;28;20100;-38
2023/07/07 11:42:48;;;;;;;4.25;1.60;;;;;;;27.05;38.90;101894.75;5052445;28;20103;-38
2023/07/07 11:45:41;;;;;;;3.53;1.77;;;;;;;27.00;38.62;101881.84;5052328;28;20028;-37
2023/07/07 11:48:43;;;;;;;4.00;1.42;;;;;;;27.12;40.23;101889.59;5052651;28;20052;-37